Latest Weather Observations for Lismore Airport

IDN60801

Issued at 6:05 pm EST Thursday 24 July 2014 (issued every 30 minutes, with the page automatically refreshed every 10 minutes)

About weather observations | Map of weather stations | Latest weather observations for NSW | Other Formats
Station Details ID: 058214 Name: LISMORE AIRPORT AWS Lat: -28.83 Lon: 153.26 Height: 9.21 m
Data from the previous 72 hours. | See also: Recent months for locations in New South Wales
Date/Time
EST
Temp
°C
App
Temp
°C
Dew
Point
Rel
Hum
%
Delta-T
°C
Wind Press
QNH
hPa
Press
MSL
hPa
Rain
since 9 am
mm
Dir
 
Spd
km/h
Gust
km/h
Spd
kts
Gust
kts
24/06:00pm 16.6 14.8 12.2 75 2.4 ENE 13 19 7 10 1022.4 1022.4 0.0
24/05:30pm 17.5 15.0 12.2 71 2.9 ENE 17 26 9 14 1022.1 - 0.0
24/05:00pm 18.2 15.4 11.5 65 3.6 ENE 17 22 9 12 1021.8 1021.8 0.0
24/04:30pm 19.2 16.6 10.7 58 4.6 ENE 15 20 8 11 1021.6 - 0.0
24/04:00pm 19.7 16.9 11.2 58 4.6 ENE 17 26 9 14 1021.4 1021.4 0.0
24/03:30pm 20.5 18.4 11.2 55 5.1 ENE 13 20 7 11 1021.3 - 0.0
24/03:00pm 21.3 20.0 11.1 52 5.6 E 9 17 5 9 1021.1 1021.1 0.0
24/02:30pm 21.7 19.3 8.6 43 6.9 NE 11 17 6 9 1021.2 - 0.0
24/02:00pm 22.3 20.7 10.1 46 6.6 NNE 9 17 5 9 1021.2 1021.2 0.0
24/01:30pm 21.0 19.7 9.9 49 6.0 NNE 7 15 4 8 1021.4 - 0.0
24/01:00pm 21.5 19.5 10.3 49 6.1 NE 11 15 6 8 1021.7 1021.7 0.0
24/12:30pm 21.6 20.0 10.1 48 6.2 NNE 9 15 5 8 1022.0 - 0.0
24/12:00pm 20.6 19.5 9.8 50 5.8 NNE 6 11 3 6 1022.6 1022.6 0.0
24/11:30am 20.2 19.4 10.9 55 5.1 N 6 9 3 5 1023.2 - 0.0
24/11:00am 19.6 18.8 10.9 57 4.7 WNW 6 9 3 5 1023.6 1023.6 0.0
24/10:30am 18.8 19.2 11.1 61 4.2 CALM 0 0 0 0 1023.8 - 0.0
24/10:00am 17.3 17.7 11.1 67 3.3 N 0 6 0 3 1023.9 1023.9 0.0
24/09:30am 15.1 13.5 11.7 80 1.8 NNW 11 13 6 7 1023.7 - 0.0
24/09:00am 13.5 12.1 12.1 91 0.7 NNW 11 13 6 7 1023.6 1023.6 0.0
24/08:30am 11.7 10.1 11.5 99 0.1 N 11 13 6 7 1023.3 - 0.0
24/08:00am 10.8 9.4 10.8 100 0.0 N 9 13 5 7 1023.4 1023.4 0.0
24/07:30am 10.0 8.7 9.9 99 0.1 N 7 9 4 5 1023.6 - 0.0
24/07:00am 9.7 7.9 9.6 99 0.0 NNE 9 11 5 6 1023.3 1023.3 0.0
24/06:30am 9.2 7.3 9.1 99 0.0 N 9 13 5 7 1023.1 - 0.0
24/06:00am 9.3 9.1 9.2 99 0.0 CALM 0 0 0 0 1022.6 1022.6 0.0
24/05:30am 9.3 7.8 9.2 99 0.0 N 7 11 4 6 1022.3 - 0.0
24/05:00am 9.4 7.2 9.3 99 0.0 N 11 13 6 7 1022.3 1022.3 0.0
24/04:30am 9.7 8.0 9.7 100 0.0 NNW 9 11 5 6 1022.1 - 0.0
24/04:00am 9.3 6.7 9.2 99 0.0 N 13 15 7 8 1021.9 1021.9 0.0
24/03:30am 9.5 8.1 9.5 100 0.0 NNW 7 11 4 6 1021.9 - 0.0
24/03:00am 9.4 7.6 9.4 100 0.0 NNE 9 11 5 6 1021.8 1021.8 0.0
24/02:30am 9.1 8.9 9.1 100 0.0 CALM 0 9 0 5 1022.1 - 0.0
24/02:00am 9.1 7.2 9.1 100 0.0 N 9 13 5 7 1022.3 1022.3 0.0
24/01:30am 9.2 7.3 9.2 100 0.0 N 9 11 5 6 1022.4 - 0.0
24/01:00am 8.9 6.2 8.9 100 0.0 N 13 15 7 8 1022.7 1022.7 0.0
24/12:30am 8.9 7.5 8.9 100 0.0 NNE 6 9 3 5 1022.7 - 0.0
24/12:13am 9.0 7.5 9.0 100 0.0 N 7 11 4 6 1022.9 - 0.0
24/12:00am 8.3 7.1 8.2 99 0.0 N 4 11 2 6 1022.7 1022.7 0.0
 
Date/Time
EST
Temp
°C
App
Temp
°C
Dew
Point
Rel
Hum
%
Delta-T
°C
Wind Press
QNH
hPa
Press
MSL
hPa
Rain
since 9 am
mm
Dir
 
Spd
km/h
Gust
km/h
Spd
kts
Gust
kts
23/11:30pm 7.5 6.9 7.4 99 0.0 CALM 0 0 0 0 1023.1 - 0.0
23/11:24pm 7.9 7.4 7.8 99 0.0 CALM 0 0 0 0 1023.0 - 0.0
23/11:00pm 8.4 7.6 8.3 99 0.0 N 2 7 1 4 1023.0 1023.0 0.0
23/10:55pm 8.4 6.9 8.3 99 0.0 N 6 9 3 5 1022.9 - 0.0
23/10:30pm 9.0 7.1 8.9 99 0.0 N 9 11 5 6 1022.9 - 0.0
23/10:00pm 9.9 8.2 9.8 99 0.0 N 9 11 5 6 1022.9 1022.9 0.0
23/09:30pm 9.4 7.6 9.3 99 0.0 N 9 9 5 5 1022.7 - 0.0
23/09:00pm 10.9 9.8 10.7 99 0.1 N 7 9 4 5 1022.8 1022.8 0.0
23/08:30pm 9.9 8.2 9.8 99 0.1 N 9 11 5 6 1022.8 - 0.0
23/08:00pm 9.4 7.9 9.3 99 0.0 N 7 11 4 6 1022.6 1022.6 0.0
23/07:30pm 9.4 9.1 8.5 94 0.4 CALM 0 0 0 0 1022.4 - 0.0
23/07:00pm 10.7 10.6 9.5 92 0.6 CALM 0 0 0 0 1022.2 1022.2 0.0
23/06:30pm 10.8 10.5 8.6 86 1.1 S 0 0 0 0 1022.3 - 0.0
23/06:00pm 12.2 12.0 9.0 81 1.6 S 0 0 0 0 1022.3 1022.3 0.0
23/05:30pm 13.1 12.0 8.4 73 2.3 S 4 6 2 3 1022.0 - 0.0
23/05:00pm 16.2 14.6 10.3 68 3.1 SE 9 11 5 6 1021.4 1021.4 0.0
23/04:30pm 17.4 15.9 10.5 64 3.7 ESE 9 13 5 7 1021.0 - 0.0
23/04:00pm 18.0 15.3 10.4 61 4.0 SSE 15 20 8 11 1021.1 1021.1 0.0
23/03:30pm 17.6 15.9 9.8 60 4.1 SSE 9 13 5 7 1021.2 - 0.0
23/03:00pm 19.4 16.7 10.4 56 4.8 SSE 15 26 8 14 1020.8 1020.8 0.0
23/02:30pm 18.1 16.1 10.2 60 4.2 SE 11 15 6 8 1020.9 - 0.0
23/02:00pm 19.4 18.1 9.9 54 5.1 S 7 19 4 10 1020.6 1020.6 0.0
23/01:30pm 17.9 14.7 9.8 59 4.3 S 17 22 9 12 1020.8 - 0.0
23/01:00pm 19.0 16.4 10.6 58 4.5 SSW 15 20 8 11 1021.0 1021.0 0.0
23/12:30pm 18.5 16.2 10.3 59 4.4 S 13 20 7 11 1021.6 - 0.0
23/12:00pm 17.7 15.4 10.6 63 3.8 SW 13 20 7 11 1022.3 1022.3 0.0
23/11:30am 17.9 15.4 11.0 64 3.7 SW 15 20 8 11 1022.9 - 0.0
23/11:00am 16.8 13.8 10.6 67 3.3 SSW 17 22 9 12 1023.4 1023.4 0.0
23/10:30am 15.9 12.7 9.8 67 3.2 S 17 22 9 12 1023.9 - 0.0
23/10:00am 15.2 12.2 9.3 68 3.0 SW 15 20 8 11 1024.4 1024.4 0.0
23/09:30am 14.4 11.7 9.0 70 2.7 WSW 13 19 7 10 1024.4 - 0.0
23/09:00am 12.2 11.4 11.6 96 0.3 N 7 11 4 6 1024.3 1024.3 3.2
23/08:30am 10.2 8.6 10.2 100 0.0 N 9 13 5 7 1024.0 - 3.2
23/08:00am 7.9 5.3 7.9 100 0.0 N 11 15 6 8 1023.9 1023.9 3.2
23/07:30am 7.3 5.0 7.3 100 0.0 N 9 13 5 7 1023.6 - 3.2
23/07:19am 6.8 6.1 6.8 100 0.0 CALM 0 0 0 0 1023.4 - 3.2
23/07:00am 5.1 3.2 5.0 99 0.0 NNW 4 7 2 4 1023.2 1023.2 3.2
23/06:57am 5.1 2.8 5.0 99 0.0 N 6 11 3 6 1023.2 - 3.2
23/06:52am 5.1 2.6 5.0 99 0.0 N 7 11 4 6 1023.2 - 3.2
23/06:37am 5.7 3.4 5.6 99 0.0 N 7 9 4 5 1023.0 - 3.2
23/06:36am 5.5 3.1 5.4 99 0.0 N 7 9 4 5 1023.0 - 3.2
23/06:34am 4.9 2.4 4.8 99 0.0 N 7 9 4 5 1022.9 - 3.2
23/06:30am 5.3 2.9 5.2 99 0.0 N 7 9 4 5 1022.9 - 3.2
23/06:25am 5.4 3.0 5.3 99 0.0 N 7 9 4 5 1022.8 - 3.2
23/06:00am 5.8 4.1 5.7 99 0.0 N 4 9 2 5 1022.3 1022.3 3.2
23/05:30am 5.4 4.3 5.3 99 0.0 CALM 0 9 0 5 1022.1 - 3.2
23/05:00am 4.4 1.8 4.3 99 0.0 NNW 7 11 4 6 1021.7 1021.7 3.2
23/04:30am 6.7 5.9 6.6 99 0.0 CALM 0 0 0 0 1021.6 - 3.2
23/04:29am 6.7 5.9 6.6 99 0.0 CALM 0 0 0 0 1021.5 - 3.2
23/04:00am 6.6 5.4 6.5 99 0.0 N 2 7 1 4 1021.5 1021.5 3.2
23/03:44am 7.3 4.9 7.2 99 0.0 N 9 11 5 6 1021.4 - 3.2
23/03:36am 7.4 4.7 7.3 99 0.0 N 11 13 6 7 1021.5 - 3.2
23/03:30am 7.5 5.2 7.4 99 0.0 N 9 11 5 6 1021.6 - 3.2
23/03:00am 8.2 6.5 8.2 100 0.0 N 7 9 4 5 1021.8 1021.8 3.0
23/02:47am 7.9 5.7 7.9 100 0.0 NNW 9 13 5 7 1021.7 - 3.0
23/02:38am 8.2 7.0 8.1 99 0.0 N 4 9 2 5 1021.7 - 3.0
23/02:30am 7.6 6.3 7.5 99 0.0 N 4 7 2 4 1021.9 - 3.0
23/02:25am 7.6 5.7 7.5 99 0.0 N 7 13 4 7 1021.9 - 3.0
23/02:00am 7.8 5.2 7.7 99 0.0 NNE 11 13 6 7 1022.0 1022.0 3.0
23/01:54am 7.8 5.2 7.7 99 0.0 N 11 11 6 6 1022.0 - 3.0
23/01:30am 7.6 7.0 7.5 99 0.0 CALM 0 0 0 0 1022.0 - 3.0
23/01:00am 7.1 6.4 7.0 99 0.0 CALM 0 0 0 0 1022.0 1022.0 3.0
23/12:36am 7.5 6.9 7.4 99 0.0 CALM 0 0 0 0 1022.1 - 3.0
23/12:32am 8.1 7.6 8.0 99 0.0 CALM 0 0 0 0 1022.2 - 3.0
23/12:30am 8.2 7.8 8.1 99 0.0 CALM 0 0 0 0 1022.1 - 3.0
23/12:00am 8.8 6.4 8.7 99 0.0 NNW 11 15 6 8 1022.3 1022.3 3.0
 
Date/Time
EST
Temp
°C
App
Temp
°C
Dew
Point
Rel
Hum
%
Delta-T
°C
Wind Press
QNH
hPa
Press
MSL
hPa
Rain
since 9 am
mm
Dir
 
Spd
km/h
Gust
km/h
Spd
kts
Gust
kts
22/11:30pm 9.2 8.6 9.1 99 0.0 N 2 7 1 4 1022.3 - 3.0
22/11:00pm 10.0 7.6 9.9 99 0.1 NNW 13 15 7 8 1022.2 1022.2 3.0
22/10:30pm 9.6 7.0 9.5 99 0.0 NNW 13 15 7 8 1022.4 - 3.0
22/10:00pm 10.6 8.7 10.4 99 0.1 N 11 11 6 6 1022.6 1022.6 3.0
22/09:30pm 10.4 8.4 10.2 99 0.1 N 11 13 6 7 1022.8 - 3.0
22/09:00pm 10.5 10.6 10.3 99 0.1 CALM 0 0 0 0 1022.7 1022.7 3.0
22/08:30pm 10.9 11.1 10.7 99 0.1 CALM 0 0 0 0 1022.4 - 3.0
22/08:00pm 10.9 9.4 10.7 99 0.1 NNW 9 11 5 6 1022.3 1022.3 3.0
22/07:30pm 11.2 9.8 10.9 98 0.2 NW 9 15 5 8 1022.4 - 3.0
22/07:00pm 12.1 11.2 11.2 94 0.5 E 7 13 4 7 1022.3 1022.3 3.0
22/06:30pm 12.6 10.8 10.7 88 1.0 NNW 11 19 6 10 1021.9 - 2.2
22/06:25pm 12.7 11.1 10.2 85 1.3 W 9 13 5 7 1021.9 - 2.0
22/06:05pm 13.8 8.0 9.6 76 2.2 SW 30 41 16 22 1021.8 - 0.0
22/06:00pm 13.9 7.8 8.3 69 2.8 SW 30 43 16 23 1021.6 1021.6 0.0
22/05:53pm 14.2 8.6 8.8 70 2.7 WSW 28 43 15 23 1021.4 - 0.0
22/05:30pm 14.8 13.5 11.4 80 1.8 S 9 11 5 6 1020.9 - 0.0
22/05:00pm 16.0 14.7 11.4 74 2.5 SE 9 13 5 7 1020.6 1020.6 0.0
22/04:30pm 16.9 14.8 11.0 68 3.2 SE 13 17 7 9 1020.0 - 0.0
22/04:00pm 17.6 15.1 10.9 65 3.6 SE 15 24 8 13 1019.7 1019.7 0.0
22/03:30pm 18.3 15.5 9.9 58 4.5 SE 15 19 8 10 1019.6 - 0.0
22/03:00pm 18.6 16.7 11.7 64 3.8 SE 13 17 7 9 1019.4 1019.4 0.0
22/02:30pm 19.1 16.7 10.1 56 4.8 SSE 13 24 7 13 1019.3 - 0.0
22/02:00pm 19.1 17.4 9.9 55 4.9 S 9 17 5 9 1019.3 1019.3 0.0
22/01:30pm 18.7 17.7 10.3 58 4.5 S 6 13 3 7 1019.5 - 0.0
22/01:00pm 19.1 16.8 10.4 57 4.7 S 13 19 7 10 1020.0 1020.0 0.0
22/12:30pm 18.1 15.7 10.2 60 4.2 S 13 17 7 9 1020.6 - 0.0
22/12:00pm 17.9 16.3 11.7 67 3.4 S 11 19 6 10 1021.3 1021.3 0.0
22/11:30am 17.5 15.8 11.3 67 3.4 SSW 11 19 6 10 1021.9 - 0.0
22/11:00am 17.3 16.7 12.2 72 2.8 S 7 11 4 6 1022.4 1022.4 0.0
22/10:30am 15.6 14.4 11.6 77 2.2 WSW 9 13 5 7 1022.6 - 0.0
22/10:00am 14.4 15.2 13.6 95 0.4 SSE 2 7 1 4 1023.0 1023.0 0.0
22/09:30am 14.0 15.2 13.8 99 0.1 CALM 0 0 0 0 1023.1 - 0.0
22/09:00am 12.8 12.3 12.6 99 0.1 N 7 9 4 5 1023.2 1023.2 0.2
22/08:30am 12.3 11.3 12.3 100 0.0 N 9 11 5 6 1023.0 - 0.2
22/08:00am 11.4 10.1 11.4 100 0.0 N 9 13 5 7 1022.8 1022.8 0.2
22/07:30am 11.1 9.4 11.1 100 0.0 N 11 13 6 7 1022.7 - 0.2
22/07:00am 10.6 9.1 10.6 100 0.0 N 9 13 5 7 1022.4 1022.4 0.2
22/06:42am 10.6 8.3 10.6 100 0.0 NNW 13 17 7 9 1022.3 - 0.2
22/06:30am 10.6 9.5 10.6 100 0.0 NNW 7 13 4 7 1022.1 - 0.2
22/06:27am 10.5 9.4 10.5 100 0.0 N 7 9 4 5 1022.1 - 0.2
22/06:00am 9.9 7.5 9.9 100 0.0 N 13 15 7 8 1021.9 1021.9 0.2
22/05:45am 10.3 8.0 10.3 100 0.0 N 13 17 7 9 1021.8 - 0.2
22/05:41am 10.3 8.0 10.3 100 0.0 N 13 17 7 9 1021.7 - 0.2
22/05:37am 10.1 7.7 10.1 100 0.0 N 13 17 7 9 1021.7 - 0.2
22/05:30am 10.0 7.6 9.9 99 0.1 NNW 13 17 7 9 1021.7 - 0.2
22/05:00am 10.5 7.8 10.5 100 0.0 NNW 15 17 8 9 1021.4 1021.4 0.2
22/04:30am 10.6 8.7 10.6 100 0.0 N 11 15 6 8 1021.5 - 0.2
22/04:00am 11.1 11.5 11.1 100 0.0 CALM 0 0 0 0 1021.5 1021.5 0.2
22/03:43am 11.2 11.6 11.2 100 0.0 CALM 0 0 0 0 1021.5 - 0.2
22/03:30am 11.3 10.0 11.3 100 0.0 NNW 9 9 5 5 1021.6 - 0.2
22/03:00am 11.0 10.0 11.0 100 0.0 N 7 9 4 5 1021.7 1021.7 0.2
22/02:30am 10.8 11.1 10.8 100 0.0 CALM 0 0 0 0 1021.7 - 0.2
22/02:24am 10.7 10.9 10.7 100 0.0 CALM 0 0 0 0 1021.6 - 0.2
22/02:08am 10.2 10.3 10.2 100 0.0 CALM 0 0 0 0 1021.7 - 0.2
22/02:00am 9.3 9.1 9.2 99 0.0 CALM 0 0 0 0 1021.8 1021.8 0.2
22/01:37am 8.4 8.0 8.3 99 0.0 CALM 0 0 0 0 1021.9 - 0.2
22/01:30am 8.7 8.4 8.6 99 0.0 CALM 0 0 0 0 1022.0 - 0.2
22/01:25am 9.0 8.8 8.9 99 0.0 CALM 0 0 0 0 1022.1 - 0.2
22/01:21am 9.1 8.9 9.0 99 0.0 CALM 0 0 0 0 1022.1 - 0.2
22/01:19am 9.3 9.1 9.2 99 0.0 CALM 0 0 0 0 1022.1 - 0.2
22/01:00am 11.3 11.7 11.3 100 0.0 CALM 0 0 0 0 1022.2 1022.2 0.2
22/12:30am 11.1 11.5 11.1 100 0.0 CALM 0 6 0 3 1022.4 - 0.2
22/12:26am 11.1 10.7 11.1 100 0.0 N 4 7 2 4 1022.4 - 0.2
22/12:10am 10.2 9.2 10.2 100 0.0 N 6 7 3 4 1022.6 - 0.2
22/12:00am 9.9 8.6 9.8 99 0.0 N 7 9 4 5 1022.6 1022.6 0.2
 
Date/Time
EST
Temp
°C
App
Temp
°C
Dew
Point
Rel
Hum
%
Delta-T
°C
Wind Press
QNH
hPa
Press
MSL
hPa
Rain
since 9 am
mm
Dir
 
Spd
km/h
Gust
km/h
Spd
kts
Gust
kts
21/11:30pm 9.8 8.4 9.7 99 0.1 N 7 11 4 6 1022.6 - 0.2
21/11:00pm 9.1 8.8 8.8 98 0.1 CALM 0 0 0 0 1022.8 1022.8 0.2
21/10:30pm 10.9 11.1 10.7 99 0.1 CALM 0 0 0 0 1022.8 - 0.2
21/10:24pm 11.3 11.7 11.1 99 0.1 CALM 0 0 0 0 1022.8 - 0.2
21/10:18pm 11.3 11.7 11.1 99 0.1 CALM 0 0 0 0 1022.8 - 0.2
21/10:00pm 11.2 11.5 11.0 99 0.1 CALM 0 0 0 0 1022.9 1022.9 0.2
21/09:30pm 11.7 10.8 11.5 99 0.1 NNE 7 9 4 5 1023.1 - 0.2
21/09:22pm 11.9 11.1 11.7 99 0.1 NNE 7 9 4 5 1023.1 - 0.2
21/09:06pm 11.3 11.3 11.1 99 0.1 ENE 2 7 1 4 1023.1 - 0.2
21/09:00pm 11.1 11.0 10.9 99 0.1 WSW 2 6 1 3 1023.2 1023.2 0.2
21/08:41pm 11.2 10.4 11.0 99 0.1 N 6 9 3 5 1023.2 - 0.2
21/08:30pm 11.3 10.0 11.1 99 0.1 N 9 9 5 5 1023.2 - 0.2
21/08:00pm 11.3 11.6 11.0 98 0.2 CALM 0 0 0 0 1023.0 1023.0 0.2
21/07:30pm 12.3 12.9 11.8 97 0.3 CALM 0 0 0 0 1022.9 - 0.2
21/07:00pm 13.0 13.8 12.7 98 0.2 CALM 0 0 0 0 1022.8 1022.8 0.2
21/06:30pm 13.3 13.8 12.7 96 0.3 SE 2 6 1 3 1022.6 - 0.2

Other Formats:

Comma delimited format used in spreadsheet applications
http://www.bom.gov.au/fwo/IDN60801/IDN60801.94572.axf

JavaScript Object Notation format (JSON) in row-major order
http://www.bom.gov.au/fwo/IDN60801/IDN60801.94572.json